createdAt,value
2023-04-29T00:01:59.045Z,100897.04
2023-04-29T00:04:27.434Z,100898.48
2023-04-29T00:06:56.306Z,100898.33
2023-04-29T00:09:24.477Z,100893.98
2023-04-29T00:11:52.509Z,100892.41
2023-04-29T00:14:21.063Z,100890.50
2023-04-29T00:16:49.225Z,100888.10
2023-04-29T00:19:18.430Z,100888.16
2023-04-29T00:21:46.633Z,100887.53
2023-04-29T00:24:14.747Z,100885.32
2023-04-29T00:26:43.102Z,100881.20
2023-04-29T00:29:11.418Z,100882.93
2023-04-29T00:31:39.587Z,100882.60
2023-04-29T00:34:07.709Z,100881.55
2023-04-29T00:36:36.147Z,100875.83
2023-04-29T00:39:04.526Z,100876.01
2023-04-29T00:41:32.802Z,100870.80
2023-04-29T00:44:01.011Z,100868.55
2023-04-29T00:46:29.073Z,100868.38
2023-04-29T00:48:57.697Z,100867.54
2023-04-29T00:51:26.408Z,100863.95
2023-04-29T00:53:55.353Z,100865.36
2023-04-29T00:56:23.485Z,100863.50
2023-04-29T00:58:52.782Z,100864.08
2023-04-29T01:01:22.006Z,100866.34
2023-04-29T01:03:51.428Z,100861.34
2023-04-29T01:06:25.901Z,100861.33
2023-04-29T01:09:27.163Z,100859.74
2023-04-29T01:12:23.486Z,100856.63
2023-04-29T01:15:11.128Z,100855.78
2023-04-29T01:17:55.968Z,100853.91
2023-04-29T01:20:25.580Z,100854.46
2023-04-29T01:22:53.834Z,100856.91
2023-04-29T01:25:21.961Z,100856.94
2023-04-29T01:28:32.088Z,100860.91
2023-04-29T01:31:39.012Z,100857.27
2023-04-29T01:34:37.151Z,100853.45
2023-04-29T01:37:17.585Z,100853.45
2023-04-29T01:40:10.638Z,100851.88
2023-04-29T01:43:14.573Z,100849.78
2023-04-29T01:45:46.435Z,100846.31
2023-04-29T01:48:15.732Z,100843.91
2023-04-29T01:50:46.484Z,100842.54
2023-04-29T01:53:17.527Z,100840.81
2023-04-29T01:55:47.656Z,100837.91
2023-04-29T01:58:29.949Z,100835.17
2023-04-29T02:01:31.519Z,100833.81
2023-04-29T02:04:00.179Z,100831.77
2023-04-29T02:06:28.613Z,100828.48
2023-04-29T02:08:59.923Z,100823.85
2023-04-29T02:11:28.473Z,100819.71
2023-04-29T02:13:58.491Z,100816.61
2023-04-29T02:16:26.703Z,100812.81
2023-04-29T02:18:58.751Z,100812.64
2023-04-29T02:21:27.364Z,100810.73
2023-04-29T02:23:55.667Z,100810.27
2023-04-29T02:26:25.275Z,100809.41
2023-04-29T02:28:57.280Z,100805.09
2023-04-29T02:31:25.539Z,100801.41
2023-04-29T02:33:55.781Z,100801.55
2023-04-29T02:36:24.790Z,100797.23
2023-04-29T02:38:55.440Z,100795.33
2023-04-29T02:41:23.740Z,100794.13
2023-04-29T02:43:52.008Z,100792.93
2023-04-29T02:46:20.374Z,100790.86
2023-04-29T02:48:48.681Z,100785.19
2023-04-29T02:51:17.154Z,100781.07
2023-04-29T02:53:45.312Z,100778.46
2023-04-29T02:56:13.625Z,100778.80
2023-04-29T02:58:42.453Z,100778.45
2023-04-29T03:01:11.303Z,100779.49
2023-04-29T03:03:40.513Z,100781.57
2023-04-29T03:06:08.738Z,100783.29
2023-04-29T03:08:36.813Z,100782.91
2023-04-29T03:11:05.004Z,100781.34
2023-04-29T03:13:33.302Z,100784.61
2023-04-29T03:16:01.923Z,100784.77
2023-04-29T03:18:30.480Z,100783.39
2023-04-29T03:20:58.874Z,100780.80
2023-04-29T03:23:28.076Z,100780.98
2023-04-29T03:25:57.323Z,100778.94
2023-04-29T03:28:27.797Z,100778.05
2023-04-29T03:30:57.018Z,100774.39
2023-04-29T03:33:25.360Z,100771.77
2023-04-29T03:35:53.722Z,100769.17
2023-04-29T03:38:30.343Z,100766.90
2023-04-29T03:40:58.477Z,100768.11
2023-04-29T03:43:26.522Z,100771.77
2023-04-29T03:45:54.889Z,100771.98
2023-04-29T03:48:24.032Z,100771.80
2023-04-29T03:50:53.440Z,100773.38
2023-04-29T03:53:22.021Z,100769.05
2023-04-29T03:55:50.236Z,100771.45
2023-04-29T03:58:19.044Z,100770.73
2023-04-29T04:00:47.479Z,100767.29
2023-04-29T04:03:19.281Z,100769.55
2023-04-29T04:05:47.672Z,100768.68
2023-04-29T04:08:16.542Z,100767.13
2023-04-29T04:11:03.144Z,100764.03
2023-04-29T04:13:37.434Z,100763.85
2023-04-29T04:16:06.264Z,100765.93
2023-04-29T04:18:34.377Z,100764.70
2023-04-29T04:21:09.187Z,100763.30
2023-04-29T04:23:42.651Z,100761.41
2023-04-29T04:26:11.747Z,100763.66
2023-04-29T04:28:58.981Z,100760.55
2023-04-29T04:31:47.120Z,100760.03
2023-04-29T04:34:16.491Z,100761.75
2023-04-29T04:36:45.842Z,100761.05
2023-04-29T04:39:14.158Z,100761.56
2023-04-29T04:41:42.227Z,100760.88
2023-04-29T04:44:11.007Z,100763.10
2023-04-29T04:47:08.596Z,100759.95
2023-04-29T04:49:50.115Z,100759.59
2023-04-29T04:52:22.010Z,100761.82
2023-04-29T04:54:57.313Z,100759.91
2023-04-29T04:57:26.969Z,100756.06
2023-04-29T04:59:56.526Z,100757.74
2023-04-29T05:02:25.417Z,100755.98
2023-04-29T05:04:53.758Z,100756.96
2023-04-29T05:07:22.096Z,100754.67
2023-04-29T05:10:02.255Z,100755.84
2023-04-29T05:12:31.673Z,100758.73
2023-04-29T05:15:00.377Z,100760.23
2023-04-29T05:17:29.091Z,100756.73
2023-04-29T05:19:57.317Z,100755.66
2023-04-29T05:22:28.813Z,100752.52
2023-04-29T05:25:02.764Z,100753.01
2023-04-29T05:27:31.595Z,100750.73
2023-04-29T05:30:00.226Z,100750.02
2023-04-29T05:32:28.430Z,100748.09
2023-04-29T05:34:56.817Z,100747.39
2023-04-29T05:37:30.799Z,100745.30
2023-04-29T05:40:19.137Z,100745.64
2023-04-29T05:42:48.112Z,100745.98
2023-04-29T05:45:16.360Z,100746.88
2023-04-29T05:47:44.592Z,100746.03
2023-04-29T05:50:12.783Z,100747.24
2023-04-29T05:52:40.881Z,100746.55
2023-04-29T05:55:10.531Z,100749.84
2023-04-29T05:57:38.813Z,100745.48
2023-04-29T06:00:07.803Z,100744.09
2023-04-29T06:02:54.954Z,100742.38
2023-04-29T06:05:27.897Z,100741.33
2023-04-29T06:08:10.852Z,100740.23
2023-04-29T06:10:54.090Z,100740.53
2023-04-29T06:13:22.233Z,100739.30
2023-04-29T06:15:50.642Z,100743.06
2023-04-29T06:18:19.442Z,100742.49
2023-04-29T06:20:47.682Z,100740.01
2023-04-29T06:23:15.976Z,100740.86
2023-04-29T06:25:44.051Z,100738.58
2023-04-29T06:28:12.195Z,100735.59
2023-04-29T06:30:40.212Z,100736.39
2023-04-29T06:33:09.456Z,100737.17
2023-04-29T06:35:41.548Z,100736.24
2023-04-29T06:38:35.665Z,100731.70
2023-04-29T06:41:24.042Z,100727.19
2023-04-29T06:44:10.719Z,100725.90
2023-04-29T06:47:08.495Z,100729.27
2023-04-29T06:49:49.922Z,100731.65
2023-04-29T06:52:18.238Z,100731.77
2023-04-29T06:54:46.405Z,100731.69
2023-04-29T06:57:14.481Z,100730.09
2023-04-29T06:59:42.782Z,100729.69
2023-04-29T07:02:11.434Z,100724.75
2023-04-29T07:04:41.226Z,100720.52
2023-04-29T07:07:10.018Z,100722.31
2023-04-29T07:09:38.400Z,100716.31
2023-04-29T07:12:06.666Z,100714.44
2023-04-29T07:14:37.448Z,100713.16
2023-04-29T07:17:05.561Z,100713.80
2023-04-29T07:19:33.645Z,100712.54
2023-04-29T07:22:02.223Z,100709.86
2023-04-29T07:24:30.479Z,100710.67
2023-04-29T07:26:58.620Z,100709.77
2023-04-29T07:29:26.781Z,100709.54
2023-04-29T07:31:54.843Z,100708.57
2023-04-29T07:34:23.030Z,100706.58
2023-04-29T07:36:51.438Z,100706.48
2023-04-29T07:39:19.665Z,100707.96
2023-04-29T07:41:50.357Z,100705.95
2023-04-29T07:44:18.903Z,100705.00
2023-04-29T07:46:50.199Z,100704.04
2023-04-29T07:49:18.346Z,100705.85
2023-04-29T07:51:46.662Z,100699.14
2023-04-29T07:54:16.511Z,100699.70
2023-04-29T07:56:44.682Z,100699.04
2023-04-29T07:59:12.935Z,100701.31
2023-04-29T08:01:42.245Z,100702.73
2023-04-29T08:04:10.865Z,100701.55
2023-04-29T08:06:50.221Z,100700.36
2023-04-29T08:09:18.240Z,100696.63
2023-04-29T08:11:46.702Z,100695.96
2023-04-29T08:14:14.977Z,100700.88
2023-04-29T08:16:43.057Z,100697.30
2023-04-29T08:19:11.544Z,100698.02
2023-04-29T08:21:39.763Z,100695.38
2023-04-29T08:24:07.858Z,100693.63
2023-04-29T08:26:35.884Z,100691.93
2023-04-29T08:29:04.031Z,100694.94
2023-04-29T08:31:32.277Z,100693.89
2023-04-29T08:34:00.674Z,100690.06
2023-04-29T08:36:29.949Z,100687.60
2023-04-29T08:38:58.143Z,100686.38
2023-04-29T08:41:26.908Z,100686.19
2023-04-29T08:43:55.027Z,100681.67
2023-04-29T08:46:26.132Z,100676.06
2023-04-29T08:48:56.549Z,100675.67
2023-04-29T08:51:24.872Z,100672.16
2023-04-29T08:53:53.121Z,100672.43
2023-04-29T08:56:22.167Z,100669.77
2023-04-29T08:58:54.775Z,100668.86
2023-04-29T09:01:25.387Z,100666.81
2023-04-29T09:04:09.125Z,100668.95
2023-04-29T09:06:37.425Z,100669.38
2023-04-29T09:09:07.058Z,100669.60
2023-04-29T09:11:36.896Z,100670.17
2023-04-29T09:14:05.051Z,100672.19
2023-04-29T09:16:33.230Z,100671.44
2023-04-29T09:19:01.380Z,100678.07
2023-04-29T09:21:33.364Z,100682.79
2023-04-29T09:24:02.988Z,100683.29
2023-04-29T09:26:42.952Z,100678.55
2023-04-29T09:29:16.461Z,100677.48
2023-04-29T09:31:46.172Z,100669.17
2023-04-29T09:34:15.021Z,100672.59
2023-04-29T09:36:51.231Z,100672.15
2023-04-29T09:39:23.309Z,100671.16
2023-04-29T09:41:54.450Z,100673.84
2023-04-29T09:44:28.838Z,100670.86
2023-04-29T09:47:00.149Z,100667.74
2023-04-29T09:49:35.891Z,100667.15
2023-04-29T09:52:06.060Z,100670.03
2023-04-29T09:54:38.994Z,100676.21
2023-04-29T09:57:08.732Z,100677.55
2023-04-29T09:59:41.691Z,100672.59
2023-04-29T10:02:18.685Z,100671.59
2023-04-29T10:04:48.780Z,100677.51
2023-04-29T10:07:18.382Z,100683.67
2023-04-29T10:09:48.178Z,100686.16
2023-04-29T10:12:18.683Z,100682.74
2023-04-29T10:15:28.072Z,100679.50
2023-04-29T10:18:21.083Z,100670.77
2023-04-29T10:20:50.995Z,100669.88
2023-04-29T10:23:21.524Z,100665.84
2023-04-29T10:25:53.010Z,100662.65
2023-04-29T10:28:24.450Z,100658.79
2023-04-29T10:30:54.783Z,100655.36
2023-04-29T10:33:23.495Z,100656.49
2023-04-29T10:35:53.793Z,100653.84
2023-04-29T10:38:36.350Z,100649.46
2023-04-29T10:41:15.089Z,100649.58
2023-04-29T10:43:43.367Z,100650.02
2023-04-29T10:46:17.692Z,100650.98
2023-04-29T10:48:47.288Z,100648.15
2023-04-29T10:51:44.342Z,100648.20
2023-04-29T10:54:25.679Z,100648.59
2023-04-29T10:56:54.465Z,100643.98
2023-04-29T10:59:42.584Z,100647.04
2023-04-29T11:02:11.182Z,100644.43
2023-04-29T11:05:11.238Z,100644.60
2023-04-29T11:07:39.396Z,100646.65
2023-04-29T11:10:07.894Z,100646.58
2023-04-29T11:12:36.012Z,100641.77
2023-04-29T11:15:05.560Z,100644.97
2023-04-29T11:17:38.382Z,100644.14
2023-04-29T11:20:13.719Z,100642.55
2023-04-29T11:22:50.880Z,100637.59
2023-04-29T11:25:19.074Z,100640.64
2023-04-29T11:27:49.221Z,100642.88
2023-04-29T11:30:20.295Z,100631.34
2023-04-29T11:32:51.146Z,100633.58
2023-04-29T11:35:21.895Z,100632.52
2023-04-29T11:37:50.026Z,100629.33
2023-04-29T11:40:18.083Z,100629.21
2023-04-29T11:42:48.220Z,100636.61
2023-04-29T11:45:20.214Z,100638.17
2023-04-29T11:47:49.361Z,100638.02
2023-04-29T11:50:20.602Z,100641.75
2023-04-29T11:52:50.117Z,100647.25
2023-04-29T11:55:19.489Z,100647.30
2023-04-29T11:57:49.762Z,100642.34
2023-04-29T12:00:18.017Z,100643.28
2023-04-29T12:02:47.660Z,100643.82
2023-04-29T12:05:17.361Z,100642.30
2023-04-29T12:07:46.045Z,100641.75
2023-04-29T12:10:14.255Z,100639.61
2023-04-29T12:12:46.840Z,100634.02
2023-04-29T12:15:15.571Z,100635.77
2023-04-29T12:17:44.405Z,100634.87
2023-04-29T12:20:13.319Z,100632.84
2023-04-29T12:22:44.117Z,100631.19
2023-04-29T12:25:12.755Z,100624.05
2023-04-29T12:27:44.524Z,100627.58
2023-04-29T12:30:13.115Z,100627.13
2023-04-29T12:32:42.236Z,100622.23
2023-04-29T12:35:18.249Z,100619.05
2023-04-29T12:37:50.896Z,100618.14
2023-04-29T12:40:20.880Z,100618.31
2023-04-29T12:42:49.522Z,100620.24
2023-04-29T12:45:32.377Z,100624.34
2023-04-29T12:48:02.407Z,100616.70
2023-04-29T12:50:36.247Z,100619.39
2023-04-29T12:53:06.634Z,100614.55
2023-04-29T12:55:36.354Z,100607.65
2023-04-29T12:58:05.999Z,100606.02
2023-04-29T13:00:35.314Z,100606.89
2023-04-29T13:03:04.689Z,100607.61
2023-04-29T13:05:33.047Z,100602.71
2023-04-29T13:08:02.244Z,100607.06
2023-04-29T13:10:30.346Z,100606.34
2023-04-29T13:12:58.839Z,100604.91
2023-04-29T13:15:27.952Z,100600.73
2023-04-29T13:17:57.312Z,100601.96
2023-04-29T13:20:25.766Z,100601.29
2023-04-29T13:22:54.024Z,100598.48
2023-04-29T13:25:22.100Z,100601.79
2023-04-29T13:27:50.227Z,100603.19
2023-04-29T13:30:18.418Z,100606.52
2023-04-29T13:32:53.780Z,100596.43
2023-04-29T13:35:23.604Z,100595.27
2023-04-29T13:37:52.589Z,100598.05
2023-04-29T13:40:21.374Z,100601.92
2023-04-29T13:42:55.192Z,100599.80
2023-04-29T13:45:30.517Z,100596.41
2023-04-29T13:48:09.324Z,100600.21
2023-04-29T13:53:46.412Z,100600.55
2023-04-29T13:59:08.897Z,100595.50
2023-04-29T14:04:00.427Z,100591.88
2023-04-29T14:06:29.441Z,100596.65
2023-04-29T14:08:57.737Z,100597.75
2023-04-29T14:11:26.432Z,100595.67
2023-04-29T14:13:54.465Z,100598.14
2023-04-29T14:16:22.638Z,100595.70
2023-04-29T14:18:51.245Z,100593.81
2023-04-29T14:21:22.492Z,100593.30
2023-04-29T14:23:51.087Z,100590.90
2023-04-29T14:28:57.785Z,100587.11
2023-04-29T14:31:41.798Z,100585.22
2023-04-29T14:34:10.134Z,100585.60
2023-04-29T14:36:38.314Z,100583.12
2023-04-29T14:39:06.416Z,100583.58
2023-04-29T14:41:34.532Z,100584.04
2023-04-29T14:44:02.594Z,100586.33
2023-04-29T14:46:33.924Z,100579.67
2023-04-29T14:49:02.284Z,100583.67
2023-04-29T14:51:31.278Z,100581.76
2023-04-29T14:53:59.428Z,100583.65
2023-04-29T14:56:27.932Z,100580.33
2023-04-29T14:58:56.513Z,100576.49
2023-04-29T15:01:24.799Z,100577.84
2023-04-29T15:03:53.001Z,100574.13
2023-04-29T15:06:21.555Z,100573.79
2023-04-29T15:08:49.711Z,100572.67
2023-04-29T15:11:17.752Z,100571.23
2023-04-29T15:13:45.960Z,100568.27
2023-04-29T15:16:14.582Z,100569.67
2023-04-29T15:18:45.492Z,100573.00
2023-04-29T15:21:14.055Z,100572.67
2023-04-29T15:23:42.204Z,100568.14
2023-04-29T15:26:10.625Z,100569.20
2023-04-29T15:28:38.774Z,100574.98
2023-04-29T15:31:07.138Z,100578.81
2023-04-29T15:33:36.719Z,100577.99
2023-04-29T15:36:06.691Z,100579.27
2023-04-29T15:38:34.922Z,100577.33
2023-04-29T15:41:04.124Z,100584.11
2023-04-29T15:43:33.277Z,100584.45
2023-04-29T15:46:02.002Z,100583.43
2023-04-29T15:48:30.173Z,100585.49
2023-04-29T15:50:58.384Z,100584.66
2023-04-29T15:53:26.566Z,100586.79
2023-04-29T15:55:54.783Z,100588.27
2023-04-29T15:58:22.933Z,100589.22
2023-04-29T16:00:51.357Z,100589.48
2023-04-29T16:03:19.586Z,100589.77
2023-04-29T16:05:49.556Z,100589.02
2023-04-29T16:08:18.055Z,100584.21
2023-04-29T16:10:46.588Z,100581.09
2023-04-29T16:13:14.642Z,100583.58
2023-04-29T16:15:42.839Z,100579.91
2023-04-29T16:18:11.280Z,100577.30
2023-04-29T16:20:39.577Z,100581.15
2023-04-29T16:23:07.697Z,100578.35
2023-04-29T16:25:35.941Z,100578.21
2023-04-29T16:28:04.110Z,100574.73
2023-04-29T16:30:32.470Z,100575.95
2023-04-29T16:33:00.609Z,100577.18
2023-04-29T16:35:31.071Z,100574.56
2023-04-29T16:37:59.508Z,100574.38
2023-04-29T16:40:28.474Z,100577.32
2023-04-29T16:42:57.963Z,100581.33
2023-04-29T16:45:26.649Z,100582.88
2023-04-29T16:47:54.945Z,100584.42
2023-04-29T16:50:23.400Z,100586.00
2023-04-29T16:52:51.682Z,100589.67
2023-04-29T16:55:19.841Z,100591.80
2023-04-29T16:57:48.017Z,100593.55
2023-04-29T17:00:16.608Z,100591.32
2023-04-29T17:02:47.462Z,100590.11
2023-04-29T17:05:19.697Z,100593.41
2023-04-29T17:07:47.778Z,100594.44
2023-04-29T17:10:16.141Z,100599.30
2023-04-29T17:12:45.039Z,100602.25
2023-04-29T17:15:13.140Z,100600.85
2023-04-29T17:17:41.251Z,100607.23
2023-04-29T17:20:10.602Z,100606.75
2023-04-29T17:22:40.215Z,100610.05
2023-04-29T17:25:09.342Z,100613.05
2023-04-29T17:27:38.299Z,100615.20
2023-04-29T17:30:07.585Z,100621.90
2023-04-29T17:32:39.417Z,100618.71
2023-04-29T17:35:09.006Z,100619.64
2023-04-29T17:37:37.662Z,100622.17
2023-04-29T17:40:06.788Z,100619.61
2023-04-29T17:42:35.034Z,100617.73
2023-04-29T17:45:03.563Z,100620.02
2023-04-29T17:47:31.776Z,100622.77
2023-04-29T17:50:02.484Z,100621.19
2023-04-29T17:52:31.591Z,100622.38
2023-04-29T17:54:59.641Z,100622.95
2023-04-29T17:57:28.944Z,100622.31
2023-04-29T17:59:57.275Z,100627.55
2023-04-29T18:02:25.955Z,100632.11
2023-04-29T18:04:55.042Z,100630.33
2023-04-29T18:07:23.084Z,100635.19
2023-04-29T18:09:51.861Z,100640.02
2023-04-29T18:12:20.859Z,100646.48
2023-04-29T18:14:48.973Z,100654.17
2023-04-29T18:17:17.515Z,100655.08
2023-04-29T18:19:49.733Z,100653.40
2023-04-29T18:22:18.109Z,100660.08
2023-04-29T18:24:48.549Z,100658.58
2023-04-29T18:27:16.637Z,100658.06
2023-04-29T18:29:45.454Z,100661.73
2023-04-29T18:32:13.769Z,100675.92
2023-04-29T18:34:42.434Z,100681.71
2023-04-29T18:37:11.155Z,100681.52
2023-04-29T18:39:39.469Z,100681.41
2023-04-29T18:42:07.548Z,100687.33
2023-04-29T18:44:35.891Z,100692.30
2023-04-29T18:47:04.113Z,100693.42
2023-04-29T18:49:32.212Z,100694.77
2023-04-29T18:52:01.365Z,100697.61
2023-04-29T18:54:29.514Z,100701.15
2023-04-29T18:56:58.828Z,100705.42
2023-04-29T18:59:27.221Z,100706.54
2023-04-29T19:01:55.480Z,100702.27
2023-04-29T19:04:23.837Z,100706.05
2023-04-29T19:06:51.991Z,100710.66
2023-04-29T19:09:20.442Z,100713.59
2023-04-29T19:11:48.605Z,100714.29
2023-04-29T19:14:16.779Z,100714.45
2023-04-29T19:16:45.393Z,100723.88
2023-04-29T19:19:13.429Z,100721.70
2023-04-29T19:21:41.638Z,100719.12
2023-04-29T19:24:10.591Z,100720.80
2023-04-29T19:26:40.307Z,100722.01
2023-04-29T19:29:08.628Z,100715.91
2023-04-29T19:31:37.440Z,100717.85
2023-04-29T19:34:05.672Z,100719.79
2023-04-29T19:36:34.028Z,100730.42
2023-04-29T19:39:04.567Z,100732.36
2023-04-29T19:41:34.962Z,100727.73
2023-04-29T19:44:03.418Z,100726.32
2023-04-29T19:46:31.721Z,100734.65
2023-04-29T19:48:59.820Z,100728.00
2023-04-29T19:51:28.464Z,100728.63
2023-04-29T19:53:56.814Z,100730.60
2023-04-29T19:56:25.152Z,100733.43
2023-04-29T19:58:53.452Z,100736.08
2023-04-29T20:01:21.562Z,100739.05
2023-04-29T20:03:49.778Z,100738.05
2023-04-29T20:06:18.206Z,100738.12
2023-04-29T20:08:46.640Z,100737.63
2023-04-29T20:11:14.970Z,100741.49
2023-04-29T20:13:43.095Z,100741.84
2023-04-29T20:16:11.562Z,100742.91
2023-04-29T20:18:40.864Z,100744.37
2023-04-29T20:21:08.947Z,100742.51
2023-04-29T20:23:37.018Z,100747.26
2023-04-29T20:26:05.175Z,100748.33
2023-04-29T20:28:33.209Z,100748.56
2023-04-29T20:31:01.764Z,100754.16
2023-04-29T20:33:30.158Z,100755.55
2023-04-29T20:36:05.445Z,100764.25
2023-04-29T20:38:36.703Z,100764.53
2023-04-29T20:41:08.035Z,100767.73
2023-04-29T20:43:36.282Z,100767.97
2023-04-29T20:46:05.002Z,100762.92
2023-04-29T20:48:33.780Z,100767.40
2023-04-29T20:51:01.973Z,100769.83
2023-04-29T20:53:31.383Z,100772.10
2023-04-29T20:55:59.505Z,100779.06
2023-04-29T20:58:27.639Z,100781.48
2023-04-29T21:00:56.493Z,100784.94
2023-04-29T21:03:26.127Z,100779.58
2023-04-29T21:05:55.630Z,100780.66
2023-04-29T21:08:23.994Z,100777.51
2023-04-29T21:10:52.184Z,100780.59
2023-04-29T21:13:20.496Z,100779.27
2023-04-29T21:15:48.625Z,100784.71
2023-04-29T21:18:16.968Z,100783.05
2023-04-29T21:20:45.818Z,100788.50
2023-04-29T21:23:13.909Z,100787.84
2023-04-29T21:25:42.135Z,100789.60
2023-04-29T21:28:10.610Z,100794.55
2023-04-29T21:30:38.644Z,100798.77
2023-04-29T21:33:06.924Z,100806.14
2023-04-29T21:35:35.202Z,100808.27
2023-04-29T21:38:03.288Z,100810.06
2023-04-29T21:40:31.486Z,100815.73
2023-04-29T21:43:00.026Z,100813.39
2023-04-29T21:45:28.227Z,100819.41
2023-04-29T21:48:04.008Z,100817.38
2023-04-29T21:50:32.964Z,100816.26
2023-04-29T21:53:01.023Z,100813.92
2023-04-29T21:55:29.108Z,100817.83
2023-04-29T21:57:57.279Z,100825.48
2023-04-29T22:00:33.245Z,100829.84
2023-04-29T22:03:05.479Z,100831.48
2023-04-29T22:05:33.567Z,100832.48
2023-04-29T22:08:03.096Z,100832.99
2023-04-29T22:10:31.238Z,100835.84
2023-04-29T22:12:59.452Z,100833.66
2023-04-29T22:15:29.294Z,100844.00
2023-04-29T22:17:58.309Z,100842.86
2023-04-29T22:20:28.039Z,100835.31
2023-04-29T22:22:56.614Z,100837.73
2023-04-29T22:25:24.754Z,100840.01
2023-04-29T22:27:53.008Z,100842.35
2023-04-29T22:30:21.681Z,100842.38
2023-04-29T22:32:49.933Z,100844.54
2023-04-29T22:35:18.136Z,100843.64
2023-04-29T22:37:46.247Z,100843.84
2023-04-29T22:40:14.379Z,100852.71
2023-04-29T22:42:43.108Z,100849.66
2023-04-29T22:45:12.587Z,100853.59
2023-04-29T22:47:40.817Z,100853.36
2023-04-29T22:50:10.299Z,100857.86
2023-04-29T22:52:38.414Z,100863.70
2023-04-29T22:55:07.141Z,100862.89
2023-04-29T22:57:35.451Z,100878.61
2023-04-29T23:00:03.804Z,100875.05
2023-04-29T23:02:31.922Z,100874.95
2023-04-29T23:05:00.193Z,100877.73
2023-04-29T23:07:28.893Z,100878.05
2023-04-29T23:09:57.115Z,100876.80
2023-04-29T23:12:25.478Z,100878.88
2023-04-29T23:14:53.622Z,100880.98
2023-04-29T23:17:21.654Z,100879.79
2023-04-29T23:19:49.761Z,100883.15
2023-04-29T23:22:17.843Z,100882.94
2023-04-29T23:24:46.322Z,100882.27
2023-04-29T23:27:14.685Z,100884.02
2023-04-29T23:29:42.706Z,100882.30
2023-04-29T23:32:10.892Z,100884.98
2023-04-29T23:34:39.406Z,100886.57
2023-04-29T23:37:07.438Z,100890.76
2023-04-29T23:39:35.617Z,100887.34
2023-04-29T23:42:04.017Z,100886.70
2023-04-29T23:44:32.076Z,100890.55
2023-04-29T23:47:00.200Z,100898.55
2023-04-29T23:49:28.833Z,100901.73
2023-04-29T23:51:57.024Z,100899.31
2023-04-29T23:54:25.077Z,100902.94
2023-04-29T23:56:53.724Z,100896.52
2023-04-29T23:59:22.122Z,100899.30
